createdAt,value
2022-09-02T04:16:44.352Z,12.64
2022-09-02T04:19:11.346Z,12.62
2022-09-02T04:21:41.267Z,12.63
2022-09-02T04:24:10.134Z,12.69
2022-09-02T04:26:45.424Z,12.76
2022-09-02T04:29:20.732Z,12.57
2022-09-02T04:31:50.424Z,12.57
2022-09-02T04:34:20.427Z,12.59
2022-09-02T04:36:49.622Z,12.65
2022-09-02T04:39:18.017Z,12.66
2022-09-02T04:41:59.526Z,12.67
2022-09-02T04:44:26.879Z,12.64
2022-09-02T04:46:56.387Z,12.66
2022-09-02T04:49:23.756Z,12.69
2022-09-02T04:51:54.439Z,12.65
2022-09-02T04:54:22.767Z,12.66
2022-09-02T05:00:20.104Z,12.61
2022-09-02T05:03:13.711Z,12.64
2022-09-02T05:06:01.191Z,12.60
2022-09-02T05:08:37.869Z,12.52
2022-09-02T05:11:10.145Z,12.59
2022-09-02T05:13:58.965Z,12.64
2022-09-02T05:20:02.907Z,12.80
2022-09-02T05:22:44.834Z,12.91
2022-09-02T05:25:24.215Z,13.00
2022-09-02T05:31:32.568Z,12.95
2022-09-02T05:34:00.260Z,12.90
2022-09-02T05:36:27.367Z,12.84
2022-09-02T05:38:55.728Z,12.89
2022-09-02T05:41:24.220Z,12.91
2022-09-02T05:43:57.006Z,12.95
2022-09-02T05:46:29.980Z,13.10
2022-09-02T05:49:06.907Z,13.13
2022-09-02T05:51:52.998Z,13.12
2022-09-02T05:54:28.601Z,13.11
2022-09-02T05:56:59.226Z,13.17
2022-09-02T05:59:27.580Z,13.24
2022-09-02T06:01:59.097Z,13.30
2022-09-02T06:04:29.078Z,13.31
2022-09-02T06:06:56.745Z,13.28
2022-09-02T06:09:27.149Z,13.34
2022-09-02T06:12:00.631Z,13.42
2022-09-02T06:14:31.408Z,13.34
2022-09-02T06:17:00.351Z,13.37
2022-09-02T06:19:35.376Z,13.44
2022-09-02T06:22:58.594Z,13.53
2022-09-02T06:25:28.820Z,13.45
2022-09-02T06:27:55.990Z,13.63
2022-09-02T06:30:24.409Z,13.79
2022-09-02T06:32:51.084Z,13.82
2022-09-02T06:35:19.832Z,13.99
2022-09-02T06:37:46.684Z,13.97
2022-09-02T06:40:14.723Z,13.99
2022-09-02T06:42:42.214Z,14.08
2022-09-02T06:45:55.563Z,14.12
2022-09-02T06:48:22.599Z,14.16
2022-09-02T06:50:52.283Z,14.21
2022-09-02T06:53:19.759Z,14.49
2022-09-02T06:55:46.917Z,14.51
2022-09-02T06:58:17.087Z,14.53
2022-09-02T07:00:44.618Z,14.57
2022-09-02T07:03:31.880Z,14.53
2022-09-02T07:06:06.469Z,14.48
2022-09-02T07:08:39.185Z,14.58
2022-09-02T07:11:07.993Z,14.60
2022-09-02T07:13:39.334Z,14.60
2022-09-02T07:16:07.989Z,14.53
2022-09-02T07:18:37.836Z,14.56
2022-09-02T07:21:12.159Z,14.62
2022-09-02T07:23:41.439Z,14.61
2022-09-02T07:26:20.159Z,14.54
2022-09-02T07:28:47.603Z,14.58
2022-09-02T07:31:19.002Z,14.44
2022-09-02T07:33:58.719Z,14.35
2022-09-02T07:36:34.795Z,14.44
2022-09-02T07:39:11.066Z,14.40
2022-09-02T07:41:40.873Z,14.38
2022-09-02T07:44:08.241Z,14.43
2022-09-02T07:46:36.980Z,14.49
2022-09-02T07:49:23.941Z,14.52
2022-09-02T07:51:52.060Z,14.58
2022-09-02T07:54:22.012Z,14.75
2022-09-02T07:56:52.262Z,14.84
2022-09-02T07:59:21.776Z,14.86
2022-09-02T08:01:52.160Z,14.83
2022-09-02T08:04:23.254Z,14.77
2022-09-02T08:06:51.054Z,14.81
2022-09-02T08:09:17.702Z,14.80
2022-09-02T08:11:47.621Z,14.76
2022-09-02T08:14:20.356Z,14.82
2022-09-02T08:16:48.827Z,14.78
2022-09-02T08:19:15.966Z,14.84
2022-09-02T08:21:42.490Z,14.96
2022-09-02T08:24:10.052Z,14.97
2022-09-02T08:26:37.240Z,14.89
2022-09-02T08:29:08.681Z,14.94
2022-09-02T08:31:37.627Z,15.05
2022-09-02T08:34:04.206Z,15.06
2022-09-02T08:36:30.753Z,15.22
2022-09-02T08:38:58.293Z,15.29
2022-09-02T08:41:47.304Z,15.46
2022-09-02T08:44:22.662Z,15.45
2022-09-02T08:46:53.813Z,15.59
2022-09-02T08:49:49.647Z,15.75
2022-09-02T08:52:28.513Z,15.82
2022-09-02T08:54:56.228Z,16.02
2022-09-02T08:57:27.571Z,16.11
2022-09-02T08:59:58.404Z,16.18
2022-09-02T09:03:04.543Z,16.30
2022-09-02T09:06:04.509Z,16.41
2022-09-02T09:08:45.672Z,16.60
2022-09-02T09:11:23.736Z,16.71
2022-09-02T09:13:59.914Z,16.83
2022-09-02T09:16:33.808Z,17.01
2022-09-02T09:19:20.068Z,17.17
2022-09-02T09:21:46.676Z,17.23
2022-09-02T09:24:45.319Z,17.14
2022-09-02T09:27:21.059Z,17.27
2022-09-02T09:29:49.439Z,17.41
2022-09-02T09:32:23.202Z,17.54
2022-09-02T09:34:52.810Z,17.71
2022-09-02T09:37:36.112Z,17.83
2022-09-02T09:40:31.003Z,17.90
2022-09-02T09:43:05.694Z,17.96
2022-09-02T09:45:47.199Z,18.11
2022-09-02T09:48:16.916Z,18.37
2022-09-02T09:50:44.553Z,18.45
2022-09-02T09:53:21.349Z,18.63
2022-09-02T09:56:25.226Z,18.91
2022-09-02T09:58:52.049Z,18.88
2022-09-02T10:01:24.527Z,18.90
2022-09-02T10:04:42.888Z,19.08
2022-09-02T10:07:13.380Z,19.43
2022-09-02T10:09:40.744Z,19.71
2022-09-02T10:12:11.133Z,19.54
2022-09-02T10:14:45.767Z,19.39
2022-09-02T10:17:24.711Z,20.21
2022-09-02T10:20:13.070Z,20.81
2022-09-02T10:23:00.528Z,21.14
2022-09-02T10:25:46.082Z,21.60
2022-09-02T10:28:34.420Z,21.69
2022-09-02T10:31:13.060Z,21.13
2022-09-02T10:33:48.521Z,21.78
2022-09-02T10:36:28.765Z,21.71
2022-09-02T10:39:05.759Z,21.42
2022-09-02T10:41:32.242Z,20.91
2022-09-02T10:44:07.863Z,20.76
2022-09-02T10:46:48.490Z,21.48
2022-09-02T10:49:28.451Z,21.27
2022-09-02T10:52:14.735Z,21.00
2022-09-02T10:55:11.251Z,20.34
2022-09-02T10:57:48.288Z,21.10
2022-09-02T11:00:20.027Z,21.59
2022-09-02T11:03:12.813Z,22.29
2022-09-02T11:05:53.781Z,23.58
2022-09-02T11:08:46.461Z,24.73
2022-09-02T11:11:30.577Z,25.20
2022-09-02T11:17:16.306Z,27.00
2022-09-02T11:19:55.681Z,26.52
2022-09-02T11:22:35.285Z,27.59
2022-09-02T11:25:25.752Z,26.78
2022-09-02T11:28:12.084Z,27.09
2022-09-02T11:31:10.505Z,27.12
2022-09-02T11:36:33.448Z,28.57
2022-09-02T11:39:05.090Z,28.52
2022-09-02T11:41:49.075Z,28.47
2022-09-02T11:44:31.852Z,27.55
2022-09-02T11:47:17.176Z,28.17
2022-09-02T11:49:56.914Z,28.39
2022-09-02T11:52:29.490Z,29.10
2022-09-02T11:55:20.404Z,28.80
2022-09-02T11:57:54.907Z,28.87
2022-09-02T12:00:58.455Z,29.16
2022-09-02T12:03:41.186Z,29.53
2022-09-02T12:06:19.148Z,29.74
2022-09-02T12:08:47.081Z,29.89
2022-09-02T12:11:38.107Z,30.72
2022-09-02T12:14:08.073Z,29.95
2022-09-02T12:16:37.354Z,30.78
2022-09-02T12:19:07.386Z,29.74
2022-09-02T12:21:35.591Z,29.10
2022-09-02T12:24:02.034Z,28.63
2022-09-02T12:26:37.476Z,30.36
2022-09-02T12:29:22.985Z,31.09
2022-09-02T12:31:53.958Z,29.85
2022-09-02T12:34:20.467Z,28.40
2022-09-02T12:37:00.627Z,28.11
2022-09-02T12:39:30.696Z,26.85
2022-09-02T12:42:08.773Z,27.67
2022-09-02T12:45:01.343Z,27.27
2022-09-02T12:47:46.738Z,28.84
2022-09-02T12:50:43.856Z,30.14
2022-09-02T12:53:32.422Z,29.70
2022-09-02T12:56:08.769Z,30.31
2022-09-02T12:58:42.801Z,29.41
2022-09-02T13:01:43.004Z,30.65
2022-09-02T13:04:26.282Z,31.30
2022-09-02T13:07:14.622Z,31.04
2022-09-02T13:10:23.248Z,32.03
2022-09-02T13:13:27.095Z,32.49
2022-09-02T13:16:23.882Z,32.08
2022-09-02T13:19:21.174Z,32.81
2022-09-02T13:22:22.300Z,32.81
2022-09-02T13:25:13.276Z,31.48
2022-09-02T13:28:04.618Z,32.17
2022-09-02T13:30:52.808Z,32.55
2022-09-02T13:33:19.550Z,32.09
2022-09-02T13:35:46.283Z,32.23
2022-09-02T13:38:16.347Z,32.23
2022-09-02T13:40:46.462Z,29.87
2022-09-02T13:43:12.957Z,29.09
2022-09-02T13:45:40.088Z,27.19
2022-09-02T13:48:17.642Z,28.98
2022-09-02T13:50:47.635Z,29.50
2022-09-02T13:53:58.810Z,30.57
2022-09-02T13:56:09.825Z,31.14
2022-09-02T13:58:46.220Z,32.00
2022-09-02T14:01:28.376Z,32.11
2022-09-02T14:03:57.968Z,31.63
2022-09-02T14:06:29.074Z,30.56
2022-09-02T14:09:01.553Z,30.74
2022-09-02T14:11:30.640Z,30.66
2022-09-02T14:13:57.663Z,30.87
2022-09-02T14:16:33.995Z,30.56
2022-09-02T14:19:22.739Z,30.77
2022-09-02T14:21:50.605Z,31.43
2022-09-02T14:24:22.100Z,32.14
2022-09-02T14:26:51.960Z,32.25
2022-09-02T14:29:20.711Z,31.71
2022-09-02T14:32:06.306Z,29.54
2022-09-02T14:34:37.851Z,30.55
2022-09-02T14:37:28.577Z,31.01
2022-09-02T14:40:12.077Z,30.72
2022-09-02T14:42:45.405Z,31.76
2022-09-02T14:45:13.607Z,31.53
2022-09-02T14:47:41.242Z,31.70
2022-09-02T14:50:17.428Z,31.59
2022-09-02T14:52:52.122Z,31.61
2022-09-02T14:55:54.684Z,31.11
2022-09-02T14:58:24.877Z,31.19
2022-09-02T15:00:55.639Z,31.21
2022-09-02T15:03:23.346Z,30.37
2022-09-02T15:05:50.429Z,29.77
2022-09-02T15:08:17.208Z,30.15
2022-09-02T15:10:45.076Z,28.94
2022-09-02T15:13:14.813Z,29.36
2022-09-02T15:15:41.398Z,28.66
2022-09-02T15:18:09.173Z,29.20
2022-09-02T15:20:36.104Z,29.31
2022-09-02T15:23:03.176Z,29.27
2022-09-02T15:25:31.037Z,28.48
2022-09-02T15:27:57.681Z,27.98
2022-09-02T15:30:24.451Z,27.62
2022-09-02T15:32:51.558Z,27.75
2022-09-02T15:35:18.154Z,27.81
2022-09-02T15:37:44.692Z,27.82
2022-09-02T15:40:12.281Z,28.09
2022-09-02T15:42:39.631Z,27.83
2022-09-02T15:45:08.986Z,27.14
2022-09-02T15:47:36.336Z,26.89
2022-09-02T15:50:04.719Z,26.48
2022-09-02T15:52:32.977Z,26.88
2022-09-02T15:54:59.527Z,26.26
2022-09-02T15:57:26.228Z,26.35
2022-09-02T15:59:52.761Z,26.55
2022-09-02T16:02:19.420Z,26.69
2022-09-02T16:04:45.968Z,26.38
2022-09-02T16:07:16.876Z,26.33
2022-09-02T16:09:44.242Z,26.15
2022-09-02T16:12:12.983Z,25.75
2022-09-02T16:14:39.557Z,25.42
2022-09-02T16:17:08.565Z,25.69
2022-09-02T16:19:35.049Z,25.59
2022-09-02T16:22:01.745Z,25.52
2022-09-02T16:24:28.277Z,25.00
2022-09-02T16:26:54.860Z,25.09
2022-09-02T16:29:21.551Z,25.15
2022-09-02T16:32:02.260Z,25.34
2022-09-02T16:34:35.929Z,24.78
2022-09-02T16:37:02.550Z,24.48
2022-09-02T16:39:29.144Z,24.80
2022-09-02T16:41:55.724Z,24.78
2022-09-02T16:44:24.735Z,24.32
2022-09-02T16:47:18.789Z,23.91
2022-09-02T16:49:46.350Z,23.97
2022-09-02T16:52:13.409Z,23.85
2022-09-02T16:54:41.033Z,23.89
2022-09-02T16:57:08.332Z,23.82
2022-09-02T16:59:34.976Z,23.77
2022-09-02T17:02:01.968Z,23.67
2022-09-02T17:04:29.537Z,23.33
2022-09-02T17:06:56.612Z,23.08
2022-09-02T17:09:23.217Z,23.19
2022-09-02T17:11:53.797Z,23.01
2022-09-02T17:14:21.709Z,23.00
2022-09-02T17:16:50.364Z,22.39
2022-09-02T17:19:22.843Z,22.45
2022-09-02T17:21:54.305Z,22.22
2022-09-02T17:24:23.771Z,22.04
2022-09-02T17:26:52.395Z,21.82
2022-09-02T17:32:08.064Z,21.47
2022-09-02T17:34:34.744Z,21.41
2022-09-02T17:37:01.509Z,21.36
2022-09-02T17:39:28.180Z,21.13
2022-09-02T17:41:54.792Z,21.02
2022-09-02T17:44:26.962Z,20.98
2022-09-02T17:46:55.804Z,20.82
2022-09-02T17:49:22.587Z,20.85
2022-09-02T17:51:49.551Z,20.74
2022-09-02T17:54:16.051Z,20.73
2022-09-02T17:56:42.656Z,20.54
2022-09-02T17:59:27.999Z,20.45
2022-09-02T18:02:17.996Z,20.20
2022-09-02T18:05:18.452Z,20.13
2022-09-02T18:08:02.949Z,20.01
2022-09-02T18:10:36.189Z,19.91
2022-09-02T18:13:09.389Z,19.79
2022-09-02T18:16:08.327Z,19.75
2022-09-02T18:18:39.990Z,19.67
2022-09-02T18:21:12.596Z,19.59
2022-09-02T18:24:00.416Z,19.50
2022-09-02T18:26:59.102Z,19.36
2022-09-02T18:29:31.541Z,19.39
2022-09-02T18:32:23.414Z,19.33
2022-09-02T18:35:15.725Z,19.14
2022-09-02T18:38:08.697Z,19.03
2022-09-02T18:40:49.107Z,18.99
2022-09-02T18:43:34.837Z,18.97
2022-09-02T18:46:03.180Z,18.87
2022-09-02T18:48:33.364Z,18.83
2022-09-02T18:51:07.285Z,18.79
2022-09-02T18:53:39.791Z,18.70
2022-09-02T18:56:09.757Z,18.60
2022-09-02T18:58:54.824Z,18.57
2022-09-02T19:01:27.195Z,18.52
2022-09-02T19:03:53.925Z,18.38
2022-09-02T19:06:28.793Z,18.40
2022-09-02T19:08:59.626Z,18.31
2022-09-02T19:11:27.243Z,18.27
2022-09-02T19:13:56.653Z,18.29
2022-09-02T19:16:26.290Z,18.16
2022-09-02T19:18:53.386Z,18.10
2022-09-02T19:21:33.151Z,18.11
2022-09-02T19:24:02.344Z,18.12
2022-09-02T19:26:28.859Z,18.09
2022-09-02T19:28:57.031Z,18.09
2022-09-02T19:31:28.089Z,17.96
2022-09-02T19:33:59.475Z,17.96
2022-09-02T19:36:31.132Z,17.93
2022-09-02T19:38:58.315Z,17.82
2022-09-02T19:41:27.499Z,17.79
2022-09-02T19:43:54.618Z,17.77
2022-09-02T19:46:45.432Z,17.73
2022-09-02T19:49:08.550Z,17.64
2022-09-02T19:51:35.150Z,17.61
2022-09-02T19:54:01.787Z,17.57
2022-09-02T19:56:28.354Z,17.46
2022-09-02T19:58:55.118Z,17.38
2022-09-02T20:01:21.654Z,17.33
2022-09-02T20:03:48.314Z,17.24
2022-09-02T20:06:14.835Z,17.24
2022-09-02T20:08:41.360Z,17.11
2022-09-02T20:11:07.838Z,16.99
2022-09-02T20:13:40.094Z,16.91
2022-09-02T20:16:20.388Z,16.86
2022-09-02T20:18:48.732Z,16.79
2022-09-02T20:21:24.689Z,16.63
2022-09-02T20:23:53.717Z,16.61
2022-09-02T20:26:46.575Z,16.64
2022-09-02T20:29:42.450Z,16.52
2022-09-02T20:32:35.263Z,16.46
2022-09-02T20:35:17.172Z,16.35
2022-09-02T20:37:51.905Z,16.16
2022-09-02T20:40:46.863Z,16.25
2022-09-02T20:43:29.143Z,16.14
2022-09-02T20:46:34.252Z,16.05
2022-09-02T20:49:19.683Z,15.99
2022-09-02T20:52:05.559Z,16.01
2022-09-02T20:54:40.629Z,15.93
2022-09-02T20:57:30.957Z,15.87
2022-09-02T21:00:13.193Z,15.83
2022-09-02T21:03:05.292Z,15.76
2022-09-02T21:05:40.746Z,15.63
2022-09-02T21:08:24.438Z,15.68
2022-09-02T21:10:59.867Z,15.54
2022-09-02T21:13:51.376Z,15.55
2022-09-02T21:16:25.460Z,15.51
2022-09-02T21:19:13.956Z,15.34
2022-09-02T21:21:47.554Z,15.39
2022-09-02T21:24:20.455Z,15.32
2022-09-02T21:27:06.241Z,15.32
2022-09-02T21:29:42.104Z,15.31
2022-09-02T21:32:17.525Z,15.29
2022-09-02T21:34:52.819Z,15.20
2022-09-02T21:37:22.086Z,15.11
2022-09-02T21:39:58.204Z,15.01
2022-09-02T21:42:48.797Z,14.97
2022-09-02T21:45:33.656Z,14.93
2022-09-02T21:48:33.740Z,14.80
2022-09-02T21:51:08.636Z,14.73
2022-09-02T21:54:04.141Z,14.71
2022-09-02T21:56:38.760Z,14.65
2022-09-02T21:59:21.864Z,14.66
